sensor_id;sensor_type;location;lat;lon;timestamp;pressure;altitude;pressure_sealevel;temperature;humidity
46642;BME280;32370;41.864;-88.124;2023-02-11T00:01:23;100108.96;;;-3.16;62.86
46642;BME280;32370;41.864;-88.124;2023-02-11T00:03:52;100109.58;;;-3.49;63.95
46642;BME280;32370;41.864;-88.124;2023-02-11T00:06:20;100112.15;;;-3.49;63.33
46642;BME280;32370;41.864;-88.124;2023-02-11T00:08:49;100115.58;;;-3.37;64.08
46642;BME280;32370;41.864;-88.124;2023-02-11T00:11:19;100121.65;;;-3.48;65.16
46642;BME280;32370;41.864;-88.124;2023-02-11T00:13:48;100123.32;;;-3.57;65.67
46642;BME280;32370;41.864;-88.124;2023-02-11T00:16:18;100121.47;;;-3.60;65.38
46642;BME280;32370;41.864;-88.124;2023-02-11T00:18:47;100129.28;;;-3.26;67.08
46642;BME280;32370;41.864;-88.124;2023-02-11T00:21:16;100130.82;;;-3.22;66.88
46642;BME280;32370;41.864;-88.124;2023-02-11T00:23:45;100131.49;;;-3.37;67.95
46642;BME280;32370;41.864;-88.124;2023-02-11T00:26:15;100127.96;;;-3.77;68.25
46642;BME280;32370;41.864;-88.124;2023-02-11T00:28:43;100132.05;;;-3.51;68.25
46642;BME280;32370;41.864;-88.124;2023-02-11T00:31:12;100134.40;;;-3.51;68.88
46642;BME280;32370;41.864;-88.124;2023-02-11T00:33:40;100139.73;;;-3.53;68.55
46642;BME280;32370;41.864;-88.124;2023-02-11T00:36:14;100145.46;;;-3.68;68.63
46642;BME280;32370;41.864;-88.124;2023-02-11T00:38:44;100148.90;;;-3.67;69.60
46642;BME280;32370;41.864;-88.124;2023-02-11T00:41:13;100150.92;;;-3.74;69.19
46642;BME280;32370;41.864;-88.124;2023-02-11T00:43:41;100155.27;;;-3.74;68.75
46642;BME280;32370;41.864;-88.124;2023-02-11T00:46:09;100161.62;;;-3.57;69.33
46642;BME280;32370;41.864;-88.124;2023-02-11T00:48:37;100164.43;;;-3.60;69.20
46642;BME280;32370;41.864;-88.124;2023-02-11T00:51:05;100162.62;;;-3.47;69.67
46642;BME280;32370;41.864;-88.124;2023-02-11T00:53:36;100166.11;;;-3.52;70.75
46642;BME280;32370;41.864;-88.124;2023-02-11T00:56:04;100171.15;;;-3.95;69.87
46642;BME280;32370;41.864;-88.124;2023-02-11T00:58:33;100168.18;;;-4.03;69.93
46642;BME280;32370;41.864;-88.124;2023-02-11T01:01:01;100171.58;;;-4.10;69.87
46642;BME280;32370;41.864;-88.124;2023-02-11T01:03:29;100169.68;;;-3.81;69.63
46642;BME280;32370;41.864;-88.124;2023-02-11T01:05:57;100167.35;;;-4.00;69.06
46642;BME280;32370;41.864;-88.124;2023-02-11T01:08:25;100163.94;;;-4.10;69.74
46642;BME280;32370;41.864;-88.124;2023-02-11T01:10:56;100167.24;;;-4.20;69.64
46642;BME280;32370;41.864;-88.124;2023-02-11T01:13:26;100173.35;;;-4.28;69.89
46642;BME280;32370;41.864;-88.124;2023-02-11T01:15:54;100173.02;;;-3.79;70.07
46642;BME280;32370;41.864;-88.124;2023-02-11T01:18:22;100172.88;;;-4.31;69.96
46642;BME280;32370;41.864;-88.124;2023-02-11T01:20:51;100174.50;;;-4.27;70.26
46642;BME280;32370;41.864;-88.124;2023-02-11T01:23:20;100174.76;;;-4.48;69.53
46642;BME280;32370;41.864;-88.124;2023-02-11T01:25:50;100178.23;;;-4.51;70.33
46642;BME280;32370;41.864;-88.124;2023-02-11T01:28:20;100183.15;;;-4.78;69.66
46642;BME280;32370;41.864;-88.124;2023-02-11T01:30:49;100187.52;;;-4.45;69.18
46642;BME280;32370;41.864;-88.124;2023-02-11T01:33:17;100191.46;;;-4.55;69.39
46642;BME280;32370;41.864;-88.124;2023-02-11T01:35:46;100195.27;;;-4.56;70.00
46642;BME280;32370;41.864;-88.124;2023-02-11T01:38:16;100198.49;;;-4.39;69.35
46642;BME280;32370;41.864;-88.124;2023-02-11T01:40:47;100205.99;;;-4.75;69.94
46642;BME280;32370;41.864;-88.124;2023-02-11T01:43:15;100203.04;;;-4.47;69.80
46642;BME280;32370;41.864;-88.124;2023-02-11T01:45:58;100202.16;;;-4.76;70.04
46642;BME280;32370;41.864;-88.124;2023-02-11T01:48:29;100201.95;;;-4.57;69.63
46642;BME280;32370;41.864;-88.124;2023-02-11T01:51:03;100202.11;;;-4.24;70.22
46642;BME280;32370;41.864;-88.124;2023-02-11T01:53:35;100202.26;;;-4.52;70.58
46642;BME280;32370;41.864;-88.124;2023-02-11T01:56:04;100205.10;;;-4.26;69.68
46642;BME280;32370;41.864;-88.124;2023-02-11T01:58:35;100205.85;;;-4.59;69.53
46642;BME280;32370;41.864;-88.124;2023-02-11T02:01:06;100203.88;;;-4.35;69.89
46642;BME280;32370;41.864;-88.124;2023-02-11T02:03:38;100204.77;;;-4.88;68.79
46642;BME280;32370;41.864;-88.124;2023-02-11T02:06:13;100204.16;;;-4.63;68.98
46642;BME280;32370;41.864;-88.124;2023-02-11T02:08:48;100207.44;;;-4.45;68.49
46642;BME280;32370;41.864;-88.124;2023-02-11T02:11:19;100209.32;;;-4.54;68.32
46642;BME280;32370;41.864;-88.124;2023-02-11T02:13:47;100214.78;;;-4.34;67.82
46642;BME280;32370;41.864;-88.124;2023-02-11T02:16:18;100219.54;;;-4.33;67.94
46642;BME280;32370;41.864;-88.124;2023-02-11T02:18:52;100218.79;;;-4.28;66.92
46642;BME280;32370;41.864;-88.124;2023-02-11T02:21:51;100218.01;;;-4.41;67.14
46642;BME280;32370;41.864;-88.124;2023-02-11T02:25:23;100214.50;;;-4.23;68.12
46642;BME280;32370;41.864;-88.124;2023-02-11T02:28:00;100215.96;;;-5.21;68.20
46642;BME280;32370;41.864;-88.124;2023-02-11T02:31:07;100215.58;;;-5.00;68.77
46642;BME280;32370;41.864;-88.124;2023-02-11T02:33:45;100219.37;;;-4.99;69.19
46642;BME280;32370;41.864;-88.124;2023-02-11T02:36:22;100217.47;;;-5.26;69.91
46642;BME280;32370;41.864;-88.124;2023-02-11T02:38:54;100217.33;;;-5.04;69.34
46642;BME280;32370;41.864;-88.124;2023-02-11T02:41:27;100215.98;;;-5.48;70.37
46642;BME280;32370;41.864;-88.124;2023-02-11T02:43:57;100214.52;;;-5.33;69.95
46642;BME280;32370;41.864;-88.124;2023-02-11T02:46:27;100212.15;;;-5.40;70.39
46642;BME280;32370;41.864;-88.124;2023-02-11T02:48:57;100218.61;;;-5.22;69.49
46642;BME280;32370;41.864;-88.124;2023-02-11T02:51:43;100222.44;;;-5.28;69.19
46642;BME280;32370;41.864;-88.124;2023-02-11T02:55:10;100221.88;;;-4.09;68.32
46642;BME280;32370;41.864;-88.124;2023-02-11T02:57:52;100217.41;;;-4.83;68.50
46642;BME280;32370;41.864;-88.124;2023-02-11T03:00:29;100213.54;;;-5.18;68.51
46642;BME280;32370;41.864;-88.124;2023-02-11T03:03:09;100213.97;;;-5.13;68.48
46642;BME280;32370;41.864;-88.124;2023-02-11T03:05:47;100216.14;;;-5.20;68.43
46642;BME280;32370;41.864;-88.124;2023-02-11T03:08:24;100219.86;;;-5.52;67.67
46642;BME280;32370;41.864;-88.124;2023-02-11T03:10:55;100220.60;;;-5.11;67.35
46642;BME280;32370;41.864;-88.124;2023-02-11T03:13:28;100219.89;;;-5.18;66.94
46642;BME280;32370;41.864;-88.124;2023-02-11T03:15:58;100218.77;;;-5.16;67.76
46642;BME280;32370;41.864;-88.124;2023-02-11T03:18:29;100218.94;;;-5.46;67.47
46642;BME280;32370;41.864;-88.124;2023-02-11T03:20:59;100219.04;;;-4.97;67.04
46642;BME280;32370;41.864;-88.124;2023-02-11T03:23:32;100225.08;;;-5.22;67.19
46642;BME280;32370;41.864;-88.124;2023-02-11T03:26:13;100226.93;;;-5.46;68.18
46642;BME280;32370;41.864;-88.124;2023-02-11T03:28:48;100231.73;;;-5.15;67.10
46642;BME280;32370;41.864;-88.124;2023-02-11T03:31:24;100230.66;;;-5.65;67.30
46642;BME280;32370;41.864;-88.124;2023-02-11T03:33:58;100228.63;;;-5.44;67.24
46642;BME280;32370;41.864;-88.124;2023-02-11T03:36:33;100229.96;;;-5.42;67.49
46642;BME280;32370;41.864;-88.124;2023-02-11T03:39:03;100231.10;;;-5.79;68.13
46642;BME280;32370;41.864;-88.124;2023-02-11T03:41:33;100231.95;;;-5.41;67.05
46642;BME280;32370;41.864;-88.124;2023-02-11T03:44:03;100237.37;;;-5.71;66.46
46642;BME280;32370;41.864;-88.124;2023-02-11T03:46:36;100238.49;;;-5.61;66.57
46642;BME280;32370;41.864;-88.124;2023-02-11T03:49:08;100234.66;;;-5.60;66.38
46642;BME280;32370;41.864;-88.124;2023-02-11T03:51:37;100235.11;;;-5.43;66.24
46642;BME280;32370;41.864;-88.124;2023-02-11T03:54:09;100235.16;;;-5.55;65.93
46642;BME280;32370;41.864;-88.124;2023-02-11T03:56:45;100236.21;;;-5.21;65.40
46642;BME280;32370;41.864;-88.124;2023-02-11T03:59:15;100233.59;;;-5.53;66.53
46642;BME280;32370;41.864;-88.124;2023-02-11T04:01:43;100232.78;;;-5.52;66.26
46642;BME280;32370;41.864;-88.124;2023-02-11T04:04:12;100228.63;;;-5.93;67.61
46642;BME280;32370;41.864;-88.124;2023-02-11T04:06:40;100225.61;;;-5.91;67.26
46642;BME280;32370;41.864;-88.124;2023-02-11T04:09:08;100229.38;;;-5.63;67.57
46642;BME280;32370;41.864;-88.124;2023-02-11T04:11:42;100229.67;;;-5.73;67.45
46642;BME280;32370;41.864;-88.124;2023-02-11T04:14:09;100230.30;;;-5.18;66.85
46642;BME280;32370;41.864;-88.124;2023-02-11T04:16:37;100229.15;;;-5.55;65.86
46642;BME280;32370;41.864;-88.124;2023-02-11T04:19:05;100230.63;;;-5.15;65.87
46642;BME280;32370;41.864;-88.124;2023-02-11T04:21:34;100230.19;;;-5.34;66.42
46642;BME280;32370;41.864;-88.124;2023-02-11T04:24:02;100230.76;;;-5.22;66.04
46642;BME280;32370;41.864;-88.124;2023-02-11T04:26:30;100229.76;;;-5.30;65.82
46642;BME280;32370;41.864;-88.124;2023-02-11T04:28:58;100229.27;;;-5.13;66.13
46642;BME280;32370;41.864;-88.124;2023-02-11T04:31:26;100225.47;;;-4.96;65.73
46642;BME280;32370;41.864;-88.124;2023-02-11T04:33:54;100223.99;;;-5.07;65.44
46642;BME280;32370;41.864;-88.124;2023-02-11T04:36:23;100221.96;;;-5.32;65.95
46642;BME280;32370;41.864;-88.124;2023-02-11T04:38:51;100222.59;;;-5.24;65.87
46642;BME280;32370;41.864;-88.124;2023-02-11T04:41:19;100221.66;;;-5.03;65.70
46642;BME280;32370;41.864;-88.124;2023-02-11T04:43:47;100222.38;;;-5.05;66.75
46642;BME280;32370;41.864;-88.124;2023-02-11T04:46:15;100222.11;;;-5.16;66.77
46642;BME280;32370;41.864;-88.124;2023-02-11T04:48:43;100220.66;;;-5.91;69.09
46642;BME280;32370;41.864;-88.124;2023-02-11T04:51:11;100221.52;;;-6.31;70.58
46642;BME280;32370;41.864;-88.124;2023-02-11T04:53:40;100221.55;;;-6.24;71.01
46642;BME280;32370;41.864;-88.124;2023-02-11T04:56:08;100222.43;;;-5.97;70.63
46642;BME280;32370;41.864;-88.124;2023-02-11T04:58:37;100224.43;;;-6.11;70.50
46642;BME280;32370;41.864;-88.124;2023-02-11T05:01:05;100225.67;;;-6.10;71.53
46642;BME280;32370;41.864;-88.124;2023-02-11T05:03:34;100223.27;;;-6.21;71.02
46642;BME280;32370;41.864;-88.124;2023-02-11T05:06:02;100221.17;;;-5.58;69.99
46642;BME280;32370;41.864;-88.124;2023-02-11T05:08:31;100219.53;;;-5.99;70.20
46642;BME280;32370;41.864;-88.124;2023-02-11T05:10:59;100216.75;;;-5.47;69.28
46642;BME280;32370;41.864;-88.124;2023-02-11T05:13:27;100213.18;;;-5.63;68.73
46642;BME280;32370;41.864;-88.124;2023-02-11T05:15:55;100209.62;;;-6.00;68.69
46642;BME280;32370;41.864;-88.124;2023-02-11T05:18:23;100210.57;;;-6.05;69.10
46642;BME280;32370;41.864;-88.124;2023-02-11T05:20:51;100209.05;;;-5.57;69.01
46642;BME280;32370;41.864;-88.124;2023-02-11T05:23:19;100210.56;;;-5.36;68.43
46642;BME280;32370;41.864;-88.124;2023-02-11T05:25:47;100209.64;;;-5.94;69.06
46642;BME280;32370;41.864;-88.124;2023-02-11T05:28:15;100209.38;;;-5.64;69.07
46642;BME280;32370;41.864;-88.124;2023-02-11T05:30:43;100212.15;;;-5.92;68.77
46642;BME280;32370;41.864;-88.124;2023-02-11T05:33:12;100214.24;;;-5.96;69.74
46642;BME280;32370;41.864;-88.124;2023-02-11T05:35:40;100216.04;;;-6.61;71.84
46642;BME280;32370;41.864;-88.124;2023-02-11T05:38:08;100215.69;;;-7.02;73.78
46642;BME280;32370;41.864;-88.124;2023-02-11T05:40:36;100218.17;;;-6.62;73.21
46642;BME280;32370;41.864;-88.124;2023-02-11T05:43:04;100218.51;;;-6.25;71.81
46642;BME280;32370;41.864;-88.124;2023-02-11T05:45:32;100220.36;;;-5.83;70.47
46642;BME280;32370;41.864;-88.124;2023-02-11T05:48:00;100218.20;;;-6.31;70.90
46642;BME280;32370;41.864;-88.124;2023-02-11T05:50:28;100215.75;;;-6.18;70.71
46642;BME280;32370;41.864;-88.124;2023-02-11T05:52:56;100216.30;;;-6.17;70.81
46642;BME280;32370;41.864;-88.124;2023-02-11T05:55:24;100215.23;;;-6.38;71.97
46642;BME280;32370;41.864;-88.124;2023-02-11T05:57:52;100216.86;;;-6.40;72.17
46642;BME280;32370;41.864;-88.124;2023-02-11T06:00:22;100221.15;;;-6.75;71.52
46642;BME280;32370;41.864;-88.124;2023-02-11T06:02:51;100218.89;;;-6.29;71.62
46642;BME280;32370;41.864;-88.124;2023-02-11T06:05:19;100218.18;;;-6.33;72.31
46642;BME280;32370;41.864;-88.124;2023-02-11T06:07:47;100213.66;;;-6.51;73.60
46642;BME280;32370;41.864;-88.124;2023-02-11T06:10:15;100212.87;;;-6.53;73.43
46642;BME280;32370;41.864;-88.124;2023-02-11T06:12:43;100210.09;;;-6.74;73.98
46642;BME280;32370;41.864;-88.124;2023-02-11T06:15:11;100204.35;;;-6.54;73.09
46642;BME280;32370;41.864;-88.124;2023-02-11T06:17:39;100204.50;;;-6.71;73.61
46642;BME280;32370;41.864;-88.124;2023-02-11T06:20:09;100203.91;;;-6.54;73.16
46642;BME280;32370;41.864;-88.124;2023-02-11T06:22:37;100198.91;;;-6.76;74.35
46642;BME280;32370;41.864;-88.124;2023-02-11T06:25:06;100193.29;;;-6.64;73.48
46642;BME280;32370;41.864;-88.124;2023-02-11T06:27:33;100191.05;;;-6.52;72.74
46642;BME280;32370;41.864;-88.124;2023-02-11T06:30:02;100193.04;;;-6.72;73.18
46642;BME280;32370;41.864;-88.124;2023-02-11T06:32:31;100196.46;;;-6.74;73.50
46642;BME280;32370;41.864;-88.124;2023-02-11T06:34:59;100196.58;;;-6.62;73.29
46642;BME280;32370;41.864;-88.124;2023-02-11T06:37:27;100196.10;;;-7.06;75.48
46642;BME280;32370;41.864;-88.124;2023-02-11T06:39:55;100198.89;;;-7.63;79.41
46642;BME280;32370;41.864;-88.124;2023-02-11T06:42:23;100198.63;;;-7.74;81.52
46642;BME280;32370;41.864;-88.124;2023-02-11T06:44:51;100203.00;;;-7.78;82.80
46642;BME280;32370;41.864;-88.124;2023-02-11T06:47:19;100204.61;;;-7.39;83.28
46642;BME280;32370;41.864;-88.124;2023-02-11T06:49:47;100204.47;;;-7.21;82.88
46642;BME280;32370;41.864;-88.124;2023-02-11T06:52:15;100201.87;;;-7.27;82.34
46642;BME280;32370;41.864;-88.124;2023-02-11T06:54:43;100196.67;;;-7.15;81.97
46642;BME280;32370;41.864;-88.124;2023-02-11T06:57:11;100200.91;;;-7.56;82.91
46642;BME280;32370;41.864;-88.124;2023-02-11T06:59:40;100198.80;;;-7.61;83.20
46642;BME280;32370;41.864;-88.124;2023-02-11T07:02:09;100203.23;;;-7.12;83.40
46642;BME280;32370;41.864;-88.124;2023-02-11T07:04:37;100204.44;;;-7.29;83.28
46642;BME280;32370;41.864;-88.124;2023-02-11T07:07:11;100197.03;;;-7.04;82.51
46642;BME280;32370;41.864;-88.124;2023-02-11T07:09:39;100197.20;;;-6.76;81.76
46642;BME280;32370;41.864;-88.124;2023-02-11T07:12:09;100203.95;;;-6.92;81.04
46642;BME280;32370;41.864;-88.124;2023-02-11T07:14:37;100200.56;;;-6.83;80.40
46642;BME280;32370;41.864;-88.124;2023-02-11T07:17:05;100196.38;;;-6.89;79.66
46642;BME280;32370;41.864;-88.124;2023-02-11T07:19:33;100193.68;;;-6.93;79.05
46642;BME280;32370;41.864;-88.124;2023-02-11T07:22:01;100195.42;;;-6.99;78.55
46642;BME280;32370;41.864;-88.124;2023-02-11T07:24:29;100191.66;;;-6.97;78.66
46642;BME280;32370;41.864;-88.124;2023-02-11T07:26:58;100185.30;;;-7.01;78.95
46642;BME280;32370;41.864;-88.124;2023-02-11T07:29:26;100185.95;;;-6.96;78.94
46642;BME280;32370;41.864;-88.124;2023-02-11T07:31:54;100189.82;;;-7.02;79.05
46642;BME280;32370;41.864;-88.124;2023-02-11T07:34:22;100189.60;;;-6.56;78.82
46642;BME280;32370;41.864;-88.124;2023-02-11T07:36:51;100188.58;;;-6.59;78.49
46642;BME280;32370;41.864;-88.124;2023-02-11T07:39:19;100186.30;;;-6.50;78.03
46642;BME280;32370;41.864;-88.124;2023-02-11T07:41:47;100185.70;;;-6.99;78.38
46642;BME280;32370;41.864;-88.124;2023-02-11T07:44:15;100185.00;;;-7.00;78.56
46642;BME280;32370;41.864;-88.124;2023-02-11T07:46:43;100183.06;;;-6.68;78.50
46642;BME280;32370;41.864;-88.124;2023-02-11T07:49:11;100182.80;;;-7.01;78.63
46642;BME280;32370;41.864;-88.124;2023-02-11T07:51:40;100182.79;;;-6.80;78.61
46642;BME280;32370;41.864;-88.124;2023-02-11T07:54:10;100187.49;;;-7.26;79.20
46642;BME280;32370;41.864;-88.124;2023-02-11T07:56:38;100187.29;;;-6.82;79.29
46642;BME280;32370;41.864;-88.124;2023-02-11T07:59:06;100193.15;;;-7.21;79.88
46642;BME280;32370;41.864;-88.124;2023-02-11T08:01:35;100194.26;;;-7.07;79.68
46642;BME280;32370;41.864;-88.124;2023-02-11T08:04:04;100199.10;;;-6.87;79.05
46642;BME280;32370;41.864;-88.124;2023-02-11T08:06:33;100200.76;;;-7.25;79.08
46642;BME280;32370;41.864;-88.124;2023-02-11T08:09:05;100199.94;;;-7.18;79.86
46642;BME280;32370;41.864;-88.124;2023-02-11T08:11:33;100206.26;;;-6.69;79.07
46642;BME280;32370;41.864;-88.124;2023-02-11T08:14:01;100204.18;;;-6.87;79.20
46642;BME280;32370;41.864;-88.124;2023-02-11T08:16:31;100202.53;;;-7.27;79.90
46642;BME280;32370;41.864;-88.124;2023-02-11T08:19:01;100201.14;;;-7.37;80.56
46642;BME280;32370;41.864;-88.124;2023-02-11T08:21:30;100198.75;;;-7.23;80.12
46642;BME280;32370;41.864;-88.124;2023-02-11T08:23:59;100191.75;;;-7.39;80.38
46642;BME280;32370;41.864;-88.124;2023-02-11T08:26:29;100190.80;;;-7.75;80.78
46642;BME280;32370;41.864;-88.124;2023-02-11T08:28:58;100189.93;;;-7.52;80.21
46642;BME280;32370;41.864;-88.124;2023-02-11T08:31:28;100189.46;;;-7.13;80.17
46642;BME280;32370;41.864;-88.124;2023-02-11T08:33:56;100185.95;;;-7.21;80.61
46642;BME280;32370;41.864;-88.124;2023-02-11T08:36:25;100183.18;;;-7.17;80.57
46642;BME280;32370;41.864;-88.124;2023-02-11T08:38:55;100181.35;;;-7.40;80.69
46642;BME280;32370;41.864;-88.124;2023-02-11T08:41:23;100175.51;;;-7.20;80.67
46642;BME280;32370;41.864;-88.124;2023-02-11T08:43:51;100173.81;;;-7.27;80.95
46642;BME280;32370;41.864;-88.124;2023-02-11T08:46:19;100172.06;;;-7.33;81.15
46642;BME280;32370;41.864;-88.124;2023-02-11T08:48:47;100174.44;;;-7.36;81.43
46642;BME280;32370;41.864;-88.124;2023-02-11T08:51:18;100168.74;;;-7.42;81.56
46642;BME280;32370;41.864;-88.124;2023-02-11T08:53:47;100168.70;;;-7.49;82.20
46642;BME280;32370;41.864;-88.124;2023-02-11T08:56:16;100171.38;;;-7.51;82.64
46642;BME280;32370;41.864;-88.124;2023-02-11T08:58:45;100170.59;;;-7.37;82.07
46642;BME280;32370;41.864;-88.124;2023-02-11T09:01:16;100169.97;;;-7.49;82.44
46642;BME280;32370;41.864;-88.124;2023-02-11T09:03:45;100170.30;;;-7.48;82.53
46642;BME280;32370;41.864;-88.124;2023-02-11T09:06:14;100170.13;;;-7.23;82.66
46642;BME280;32370;41.864;-88.124;2023-02-11T09:08:45;100170.25;;;-7.33;81.87
46642;BME280;32370;41.864;-88.124;2023-02-11T09:11:15;100180.47;;;-7.76;82.27
46642;BME280;32370;41.864;-88.124;2023-02-11T09:13:44;100182.54;;;-7.45;82.83
46642;BME280;32370;41.864;-88.124;2023-02-11T09:16:17;100182.51;;;-7.78;83.10
46642;BME280;32370;41.864;-88.124;2023-02-11T09:18:46;100180.46;;;-7.87;83.34
46642;BME280;32370;41.864;-88.124;2023-02-11T09:21:15;100182.46;;;-7.71;83.09
46642;BME280;32370;41.864;-88.124;2023-02-11T09:23:44;100184.58;;;-8.01;84.62
46642;BME280;32370;41.864;-88.124;2023-02-11T09:26:14;100186.57;;;-7.87;84.67
46642;BME280;32370;41.864;-88.124;2023-02-11T09:28:42;100184.94;;;-7.94;84.47
46642;BME280;32370;41.864;-88.124;2023-02-11T09:31:13;100187.33;;;-8.05;86.04
46642;BME280;32370;41.864;-88.124;2023-02-11T09:33:43;100188.81;;;-7.97;85.77
46642;BME280;32370;41.864;-88.124;2023-02-11T09:36:13;100185.63;;;-7.59;85.05
46642;BME280;32370;41.864;-88.124;2023-02-11T09:38:41;100186.35;;;-7.79;84.05
46642;BME280;32370;41.864;-88.124;2023-02-11T09:41:26;100186.17;;;-7.36;82.97
46642;BME280;32370;41.864;-88.124;2023-02-11T09:44:01;100187.27;;;-8.14;85.65
46642;BME280;32370;41.864;-88.124;2023-02-11T09:46:33;100188.26;;;-7.75;84.80
46642;BME280;32370;41.864;-88.124;2023-02-11T09:49:03;100195.19;;;-7.89;85.44
46642;BME280;32370;41.864;-88.124;2023-02-11T09:51:38;100192.72;;;-8.19;85.43
46642;BME280;32370;41.864;-88.124;2023-02-11T09:54:14;100193.32;;;-7.89;85.12
46642;BME280;32370;41.864;-88.124;2023-02-11T09:56:45;100197.50;;;-7.92;87.68
46642;BME280;32370;41.864;-88.124;2023-02-11T09:59:15;100196.35;;;-8.16;88.06
46642;BME280;32370;41.864;-88.124;2023-02-11T10:01:48;100201.20;;;-8.40;87.96
46642;BME280;32370;41.864;-88.124;2023-02-11T10:04:29;100201.11;;;-8.44;88.27
46642;BME280;32370;41.864;-88.124;2023-02-11T10:07:09;100203.01;;;-8.33;88.29
46642;BME280;32370;41.864;-88.124;2023-02-11T10:09:53;100198.66;;;-7.72;87.06
46642;BME280;32370;41.864;-88.124;2023-02-11T10:12:38;100203.16;;;-7.38;86.28
46642;BME280;32370;41.864;-88.124;2023-02-11T10:15:20;100203.02;;;-7.74;86.60
46642;BME280;32370;41.864;-88.124;2023-02-11T10:18:32;100203.32;;;-8.19;87.16
46642;BME280;32370;41.864;-88.124;2023-02-11T10:21:14;100201.61;;;-7.55;85.30
46642;BME280;32370;41.864;-88.124;2023-02-11T10:23:49;100205.63;;;-7.90;86.03
46642;BME280;32370;41.864;-88.124;2023-02-11T10:26:19;100203.20;;;-8.02;86.42
46642;BME280;32370;41.864;-88.124;2023-02-11T10:28:51;100201.87;;;-8.03;86.55
46642;BME280;32370;41.864;-88.124;2023-02-11T10:31:23;100203.22;;;-7.96;87.00
46642;BME280;32370;41.864;-88.124;2023-02-11T10:33:57;100201.77;;;-8.38;86.63
46642;BME280;32370;41.864;-88.124;2023-02-11T10:36:29;100204.76;;;-8.13;86.73
46642;BME280;32370;41.864;-88.124;2023-02-11T10:38:58;100201.58;;;-8.10;86.76
46642;BME280;32370;41.864;-88.124;2023-02-11T10:41:31;100199.74;;;-7.97;86.54
46642;BME280;32370;41.864;-88.124;2023-02-11T10:44:01;100195.99;;;-7.99;86.71
46642;BME280;32370;41.864;-88.124;2023-02-11T10:46:32;100196.66;;;-8.35;86.90
46642;BME280;32370;41.864;-88.124;2023-02-11T10:49:01;100200.10;;;-8.06;86.84
46642;BME280;32370;41.864;-88.124;2023-02-11T10:51:30;100202.50;;;-7.92;86.10
46642;BME280;32370;41.864;-88.124;2023-02-11T10:54:14;100201.76;;;-8.02;86.31
46642;BME280;32370;41.864;-88.124;2023-02-11T10:56:47;100199.05;;;-7.81;86.16
46642;BME280;32370;41.864;-88.124;2023-02-11T10:59:20;100195.10;;;-7.75;85.42
46642;BME280;32370;41.864;-88.124;2023-02-11T11:01:55;100196.17;;;-8.31;85.92
46642;BME280;32370;41.864;-88.124;2023-02-11T11:04:33;100195.64;;;-8.18;87.14
46642;BME280;32370;41.864;-88.124;2023-02-11T11:07:15;100196.74;;;-7.97;87.19
46642;BME280;32370;41.864;-88.124;2023-02-11T11:09:48;100198.62;;;-8.20;87.31
46642;BME280;32370;41.864;-88.124;2023-02-11T11:12:31;100195.25;;;-8.09;86.75
46642;BME280;32370;41.864;-88.124;2023-02-11T11:15:12;100196.48;;;-8.13;86.91
46642;BME280;32370;41.864;-88.124;2023-02-11T11:17:40;100191.54;;;-8.18;87.29
46642;BME280;32370;41.864;-88.124;2023-02-11T11:20:17;100193.10;;;-8.20;87.17
46642;BME280;32370;41.864;-88.124;2023-02-11T11:22:47;100195.43;;;-8.17;86.96
46642;BME280;32370;41.864;-88.124;2023-02-11T11:25:25;100200.81;;;-8.43;88.67
46642;BME280;32370;41.864;-88.124;2023-02-11T11:27:56;100197.39;;;-8.13;87.50
46642;BME280;32370;41.864;-88.124;2023-02-11T11:30:31;100205.49;;;-8.29;87.47
46642;BME280;32370;41.864;-88.124;2023-02-11T11:33:00;100202.28;;;-8.33;87.58
46642;BME280;32370;41.864;-88.124;2023-02-11T11:35:29;100198.85;;;-8.63;87.79
46642;BME280;32370;41.864;-88.124;2023-02-11T11:38:01;100201.38;;;-8.61;88.81
46642;BME280;32370;41.864;-88.124;2023-02-11T11:40:31;100197.54;;;-8.44;88.12
46642;BME280;32370;41.864;-88.124;2023-02-11T11:43:06;100191.85;;;-8.27;87.64
46642;BME280;32370;41.864;-88.124;2023-02-11T11:45:34;100191.46;;;-8.38;87.85
46642;BME280;32370;41.864;-88.124;2023-02-11T11:48:05;100192.02;;;-8.02;87.70
46642;BME280;32370;41.864;-88.124;2023-02-11T11:50:42;100193.63;;;-8.08;87.57
46642;BME280;32370;41.864;-88.124;2023-02-11T11:53:15;100189.80;;;-8.43;89.02
46642;BME280;32370;41.864;-88.124;2023-02-11T11:55:52;100188.31;;;-8.36;89.55
46642;BME280;32370;41.864;-88.124;2023-02-11T11:58:24;100187.43;;;-8.81;89.25
46642;BME280;32370;41.864;-88.124;2023-02-11T12:00:58;100191.31;;;-8.36;89.10
46642;BME280;32370;41.864;-88.124;2023-02-11T12:04:41;100190.84;;;-7.59;89.53
46642;BME280;32370;41.864;-88.124;2023-02-11T12:07:23;100192.30;;;-8.36;90.19
46642;BME280;32370;41.864;-88.124;2023-02-11T12:10:15;100191.62;;;-8.52;89.74
46642;BME280;32370;41.864;-88.124;2023-02-11T12:12:53;100192.47;;;-8.21;89.34
46642;BME280;32370;41.864;-88.124;2023-02-11T12:15:31;100195.72;;;-8.33;88.81
46642;BME280;32370;41.864;-88.124;2023-02-11T12:18:15;100195.84;;;-8.58;88.55
46642;BME280;32370;41.864;-88.124;2023-02-11T12:20:56;100199.23;;;-8.49;89.27
46642;BME280;32370;41.864;-88.124;2023-02-11T12:23:39;100202.51;;;-8.68;91.14
46642;BME280;32370;41.864;-88.124;2023-02-11T12:26:14;100203.48;;;-8.35;91.10
46642;BME280;32370;41.864;-88.124;2023-02-11T12:28:58;100203.03;;;-8.27;89.82
46642;BME280;32370;41.864;-88.124;2023-02-11T12:31:39;100204.99;;;-8.77;89.70
46642;BME280;32370;41.864;-88.124;2023-02-11T12:34:33;100203.70;;;-8.57;90.12
46642;BME280;32370;41.864;-88.124;2023-02-11T12:37:17;100207.88;;;-8.53;91.31
46642;BME280;32370;41.864;-88.124;2023-02-11T12:39:50;100210.87;;;-8.19;90.44
46642;BME280;32370;41.864;-88.124;2023-02-11T12:42:33;100210.17;;;-8.18;89.62
46642;BME280;32370;41.864;-88.124;2023-02-11T12:45:16;100213.12;;;-8.30;89.83
46642;BME280;32370;41.864;-88.124;2023-02-11T12:47:57;100210.97;;;-8.53;89.64
46642;BME280;32370;41.864;-88.124;2023-02-11T12:50:34;100213.81;;;-8.22;89.69
46642;BME280;32370;41.864;-88.124;2023-02-11T12:53:20;100213.59;;;-8.21;89.81
46642;BME280;32370;41.864;-88.124;2023-02-11T12:55:57;100214.30;;;-8.31;90.17